Terminal Aerodrome Forecast
Issued by NWS Brownsville, TX

Home | Current Version | Previous Version | Text Only | Print | Product List | Glossary On
Versions: 1 2 3 4 5 6 7 8 9 10 11 12 13 14
254
FTUS44 KBRO 211732
TAFMFE
TAF
KMFE 211732Z 2118/2218 16014G22KT P6SM VCSH SCT050
     FM220100 13012KT P6SM VCSH FEW060
     FM220600 12006KT P6SM FEW015
     FM221500 14012KT P6SM SCT035=

USA.gov is the U.S. government's official web portal to all federal, state and local government web resources and services.